sensor_id;sensor_type;location;lat;lon;timestamp;pressure;altitude;pressure_sealevel;temperature;humidity
54465;BME280;40374;49.480;20.016;2023-03-13T00:01:38;62409.59;;;-145.97;100.00
54465;BME280;40374;49.480;20.016;2023-03-13T00:04:06;62409.59;;;-145.97;100.00
54465;BME280;40374;49.480;20.016;2023-03-13T00:06:35;62409.59;;;-145.97;100.00
54465;BME280;40374;49.480;20.016;2023-03-13T00:09:05;62409.59;;;-145.97;100.00
54465;BME280;40374;49.480;20.016;2023-03-13T00:11:33;62409.59;;;-145.97;100.00
54465;BME280;40374;49.480;20.016;2023-03-13T00:14:02;62409.59;;;-145.97;100.00
54465;BME280;40374;49.480;20.016;2023-03-13T00:16:31;62409.59;;;-145.97;100.00
54465;BME280;40374;49.480;20.016;2023-03-13T00:19:00;62409.59;;;-145.97;100.00
54465;BME280;40374;49.480;20.016;2023-03-13T00:21:28;62409.59;;;-145.97;100.00
54465;BME280;40374;49.480;20.016;2023-03-13T00:23:58;62409.59;;;-145.97;100.00
54465;BME280;40374;49.480;20.016;2023-03-13T00:26:27;62409.59;;;-145.97;100.00
54465;BME280;40374;49.480;20.016;2023-03-13T00:28:55;62409.59;;;-145.97;100.00
54465;BME280;40374;49.480;20.016;2023-03-13T00:31:29;62409.59;;;-145.97;100.00
54465;BME280;40374;49.480;20.016;2023-03-13T00:33:59;62409.59;;;-145.97;100.00
54465;BME280;40374;49.480;20.016;2023-03-13T00:36:30;62409.59;;;-145.97;100.00
54465;BME280;40374;49.480;20.016;2023-03-13T00:39:02;62409.59;;;-145.97;100.00
54465;BME280;40374;49.480;20.016;2023-03-13T00:41:31;62409.59;;;-145.97;100.00
54465;BME280;40374;49.480;20.016;2023-03-13T00:43:59;62409.59;;;-145.97;100.00
54465;BME280;40374;49.480;20.016;2023-03-13T00:46:28;62409.59;;;-145.97;100.00
54465;BME280;40374;49.480;20.016;2023-03-13T00:48:56;62409.59;;;-145.97;100.00
54465;BME280;40374;49.480;20.016;2023-03-13T00:51:25;62409.59;;;-145.97;100.00
54465;BME280;40374;49.480;20.016;2023-03-13T00:53:55;62409.59;;;-145.97;100.00
54465;BME280;40374;49.480;20.016;2023-03-13T00:56:23;62409.59;;;-145.97;100.00
54465;BME280;40374;49.480;20.016;2023-03-13T00:58:51;62409.59;;;-145.97;100.00
54465;BME280;40374;49.480;20.016;2023-03-13T01:01:20;62409.59;;;-145.97;100.00
54465;BME280;40374;49.480;20.016;2023-03-13T01:03:50;62409.59;;;-145.97;100.00
54465;BME280;40374;49.480;20.016;2023-03-13T01:06:21;62409.59;;;-145.97;100.00
54465;BME280;40374;49.480;20.016;2023-03-13T01:08:49;62409.59;;;-145.97;100.00
54465;BME280;40374;49.480;20.016;2023-03-13T01:11:20;62409.59;;;-145.97;100.00
54465;BME280;40374;49.480;20.016;2023-03-13T01:13:48;62409.59;;;-145.97;100.00
54465;BME280;40374;49.480;20.016;2023-03-13T01:16:19;62409.59;;;-145.97;100.00
54465;BME280;40374;49.480;20.016;2023-03-13T01:18:52;62409.59;;;-145.97;100.00
54465;BME280;40374;49.480;20.016;2023-03-13T01:21:21;62409.59;;;-145.97;100.00
54465;BME280;40374;49.480;20.016;2023-03-13T01:23:50;62409.59;;;-145.97;100.00
54465;BME280;40374;49.480;20.016;2023-03-13T01:26:19;62409.59;;;-145.97;100.00
54465;BME280;40374;49.480;20.016;2023-03-13T01:28:47;62409.59;;;-145.97;100.00
54465;BME280;40374;49.480;20.016;2023-03-13T01:33:53;62409.59;;;-145.97;100.00
54465;BME280;40374;49.480;20.016;2023-03-13T01:36:22;62409.59;;;-145.97;100.00
54465;BME280;40374;49.480;20.016;2023-03-13T01:38:51;62409.59;;;-145.97;100.00
54465;BME280;40374;49.480;20.016;2023-03-13T01:41:20;62409.59;;;-145.97;100.00
54465;BME280;40374;49.480;20.016;2023-03-13T01:43:48;62409.59;;;-145.97;100.00
54465;BME280;40374;49.480;20.016;2023-03-13T01:46:27;62409.59;;;-145.97;100.00
54465;BME280;40374;49.480;20.016;2023-03-13T01:49:26;62409.59;;;-145.97;100.00
54465;BME280;40374;49.480;20.016;2023-03-13T01:57:41;62409.59;;;-145.97;100.00
54465;BME280;40374;49.480;20.016;2023-03-13T02:00:11;62409.59;;;-145.97;100.00
54465;BME280;40374;49.480;20.016;2023-03-13T02:02:47;62409.59;;;-145.97;100.00
54465;BME280;40374;49.480;20.016;2023-03-13T02:05:18;62409.59;;;-145.97;100.00
54465;BME280;40374;49.480;20.016;2023-03-13T02:07:50;62409.59;;;-145.97;100.00
54465;BME280;40374;49.480;20.016;2023-03-13T02:10:21;62409.59;;;-145.97;100.00
54465;BME280;40374;49.480;20.016;2023-03-13T02:12:50;62409.59;;;-145.97;100.00
54465;BME280;40374;49.480;20.016;2023-03-13T02:15:20;62409.59;;;-145.97;100.00
54465;BME280;40374;49.480;20.016;2023-03-13T02:17:50;62409.59;;;-145.97;100.00
54465;BME280;40374;49.480;20.016;2023-03-13T02:20:19;62409.59;;;-145.97;100.00
54465;BME280;40374;49.480;20.016;2023-03-13T02:23:00;62409.59;;;-145.97;100.00
54465;BME280;40374;49.480;20.016;2023-03-13T02:25:42;62409.59;;;-145.97;100.00
54465;BME280;40374;49.480;20.016;2023-03-13T02:28:20;62409.59;;;-145.97;100.00
54465;BME280;40374;49.480;20.016;2023-03-13T02:30:50;62409.59;;;-145.97;100.00
54465;BME280;40374;49.480;20.016;2023-03-13T02:33:21;62409.59;;;-145.97;100.00
54465;BME280;40374;49.480;20.016;2023-03-13T02:35:53;62409.59;;;-145.97;100.00
54465;BME280;40374;49.480;20.016;2023-03-13T02:38:23;62409.59;;;-145.97;100.00
54465;BME280;40374;49.480;20.016;2023-03-13T02:40:52;62409.59;;;-145.97;100.00
54465;BME280;40374;49.480;20.016;2023-03-13T02:43:26;62409.59;;;-145.97;100.00
54465;BME280;40374;49.480;20.016;2023-03-13T02:46:17;62409.59;;;-145.97;100.00
54465;BME280;40374;49.480;20.016;2023-03-13T02:48:54;62409.59;;;-145.97;100.00
54465;BME280;40374;49.480;20.016;2023-03-13T02:54:01;62409.59;;;-145.97;100.00
54465;BME280;40374;49.480;20.016;2023-03-13T02:56:31;62409.59;;;-145.97;100.00
54465;BME280;40374;49.480;20.016;2023-03-13T02:59:00;62409.59;;;-145.97;100.00
54465;BME280;40374;49.480;20.016;2023-03-13T03:01:28;62409.59;;;-145.97;100.00
54465;BME280;40374;49.480;20.016;2023-03-13T03:03:56;62409.59;;;-145.97;100.00
54465;BME280;40374;49.480;20.016;2023-03-13T03:06:23;62409.59;;;-145.97;100.00
54465;BME280;40374;49.480;20.016;2023-03-13T03:08:51;62409.59;;;-145.97;100.00
54465;BME280;40374;49.480;20.016;2023-03-13T03:11:18;62409.59;;;-145.97;100.00
54465;BME280;40374;49.480;20.016;2023-03-13T03:13:50;62409.59;;;-145.97;100.00
54465;BME280;40374;49.480;20.016;2023-03-13T03:16:18;62409.59;;;-145.97;100.00
54465;BME280;40374;49.480;20.016;2023-03-13T03:18:46;62409.59;;;-145.97;100.00
54465;BME280;40374;49.480;20.016;2023-03-13T03:21:13;62409.59;;;-145.97;100.00
54465;BME280;40374;49.480;20.016;2023-03-13T03:23:40;62409.59;;;-145.97;100.00
54465;BME280;40374;49.480;20.016;2023-03-13T03:26:08;62409.59;;;-145.97;100.00
54465;BME280;40374;49.480;20.016;2023-03-13T03:28:35;62409.59;;;-145.97;100.00
54465;BME280;40374;49.480;20.016;2023-03-13T03:31:09;62409.59;;;-145.97;100.00
54465;BME280;40374;49.480;20.016;2023-03-13T03:33:38;62409.59;;;-145.97;100.00
54465;BME280;40374;49.480;20.016;2023-03-13T03:36:12;62409.59;;;-145.97;100.00
54465;BME280;40374;49.480;20.016;2023-03-13T03:38:41;62409.59;;;-145.97;100.00
54465;BME280;40374;49.480;20.016;2023-03-13T03:41:11;62409.59;;;-145.97;100.00
54465;BME280;40374;49.480;20.016;2023-03-13T03:43:41;62409.59;;;-145.97;100.00
54465;BME280;40374;49.480;20.016;2023-03-13T03:46:11;62409.59;;;-145.97;100.00
54465;BME280;40374;49.480;20.016;2023-03-13T03:48:39;62409.59;;;-145.97;100.00
54465;BME280;40374;49.480;20.016;2023-03-13T03:51:08;62409.59;;;-145.97;100.00
54465;BME280;40374;49.480;20.016;2023-03-13T03:53:39;62409.59;;;-145.97;100.00
54465;BME280;40374;49.480;20.016;2023-03-13T03:56:07;62409.59;;;-145.97;100.00
54465;BME280;40374;49.480;20.016;2023-03-13T03:58:38;62409.59;;;-145.97;100.00
54465;BME280;40374;49.480;20.016;2023-03-13T04:01:28;62409.59;;;-145.97;100.00
54465;BME280;40374;49.480;20.016;2023-03-13T04:03:55;62409.59;;;-145.97;100.00
54465;BME280;40374;49.480;20.016;2023-03-13T04:06:22;62409.59;;;-145.97;100.00
54465;BME280;40374;49.480;20.016;2023-03-13T04:08:50;62409.59;;;-145.97;100.00
54465;BME280;40374;49.480;20.016;2023-03-13T04:11:21;62409.59;;;-145.97;100.00
54465;BME280;40374;49.480;20.016;2023-03-13T04:13:52;62409.59;;;-145.97;100.00
54465;BME280;40374;49.480;20.016;2023-03-13T04:16:20;62409.59;;;-145.97;100.00
54465;BME280;40374;49.480;20.016;2023-03-13T04:18:48;62409.59;;;-145.97;100.00
54465;BME280;40374;49.480;20.016;2023-03-13T04:21:16;62409.59;;;-145.97;100.00
54465;BME280;40374;49.480;20.016;2023-03-13T04:23:51;62409.59;;;-145.97;100.00
54465;BME280;40374;49.480;20.016;2023-03-13T04:26:19;62409.59;;;-145.97;100.00
54465;BME280;40374;49.480;20.016;2023-03-13T04:28:50;62409.59;;;-145.97;100.00
54465;BME280;40374;49.480;20.016;2023-03-13T04:31:25;62409.59;;;-145.97;100.00
54465;BME280;40374;49.480;20.016;2023-03-13T04:34:05;62409.59;;;-145.97;100.00
54465;BME280;40374;49.480;20.016;2023-03-13T04:36:58;62409.59;;;-145.97;100.00
54465;BME280;40374;49.480;20.016;2023-03-13T04:39:58;62409.59;;;-145.97;100.00
54465;BME280;40374;49.480;20.016;2023-03-13T04:42:47;62409.59;;;-145.97;100.00
54465;BME280;40374;49.480;20.016;2023-03-13T04:45:35;62409.59;;;-145.97;100.00
54465;BME280;40374;49.480;20.016;2023-03-13T04:48:32;62409.59;;;-145.97;100.00
54465;BME280;40374;49.480;20.016;2023-03-13T04:51:09;62409.59;;;-145.97;100.00
54465;BME280;40374;49.480;20.016;2023-03-13T04:53:50;62409.59;;;-145.97;100.00
54465;BME280;40374;49.480;20.016;2023-03-13T04:56:23;62409.59;;;-145.97;100.00
54465;BME280;40374;49.480;20.016;2023-03-13T04:59:31;62409.59;;;-145.97;100.00
54465;BME280;40374;49.480;20.016;2023-03-13T05:02:21;62409.59;;;-145.97;100.00
54465;BME280;40374;49.480;20.016;2023-03-13T05:05:01;62409.59;;;-145.97;100.00
54465;BME280;40374;49.480;20.016;2023-03-13T05:08:01;62409.59;;;-145.97;100.00
54465;BME280;40374;49.480;20.016;2023-03-13T05:10:28;62409.59;;;-145.97;100.00
54465;BME280;40374;49.480;20.016;2023-03-13T05:13:23;62409.59;;;-145.97;100.00
54465;BME280;40374;49.480;20.016;2023-03-13T05:15:58;62409.59;;;-145.97;100.00
54465;BME280;40374;49.480;20.016;2023-03-13T05:18:35;62409.59;;;-145.97;100.00
54465;BME280;40374;49.480;20.016;2023-03-13T05:21:19;62409.59;;;-145.97;100.00
54465;BME280;40374;49.480;20.016;2023-03-13T05:24:03;62409.59;;;-145.97;100.00
54465;BME280;40374;49.480;20.016;2023-03-13T05:26:40;62409.59;;;-145.97;100.00
54465;BME280;40374;49.480;20.016;2023-03-13T05:29:28;62409.59;;;-145.97;100.00
54465;BME280;40374;49.480;20.016;2023-03-13T05:32:07;62409.59;;;-145.97;100.00
54465;BME280;40374;49.480;20.016;2023-03-13T05:34:45;62409.59;;;-145.97;100.00
54465;BME280;40374;49.480;20.016;2023-03-13T05:37:24;62409.59;;;-145.97;100.00
54465;BME280;40374;49.480;20.016;2023-03-13T05:40:08;62409.59;;;-145.97;100.00
54465;BME280;40374;49.480;20.016;2023-03-13T05:42:44;62409.59;;;-145.97;100.00
54465;BME280;40374;49.480;20.016;2023-03-13T05:45:15;62409.59;;;-145.97;100.00
54465;BME280;40374;49.480;20.016;2023-03-13T05:47:56;62409.59;;;-145.97;100.00
54465;BME280;40374;49.480;20.016;2023-03-13T05:50:48;62409.59;;;-145.97;100.00
54465;BME280;40374;49.480;20.016;2023-03-13T05:53:42;62409.59;;;-145.97;100.00
54465;BME280;40374;49.480;20.016;2023-03-13T05:56:18;62409.59;;;-145.97;100.00
54465;BME280;40374;49.480;20.016;2023-03-13T05:59:04;62409.59;;;-145.97;100.00
54465;BME280;40374;49.480;20.016;2023-03-13T06:01:31;62409.59;;;-145.97;100.00
54465;BME280;40374;49.480;20.016;2023-03-13T06:04:14;62409.59;;;-145.97;100.00
54465;BME280;40374;49.480;20.016;2023-03-13T06:06:42;62409.59;;;-145.97;100.00
54465;BME280;40374;49.480;20.016;2023-03-13T06:09:09;62409.59;;;-145.97;100.00
54465;BME280;40374;49.480;20.016;2023-03-13T06:11:38;62409.59;;;-145.97;100.00
54465;BME280;40374;49.480;20.016;2023-03-13T06:14:06;62409.59;;;-145.97;100.00
54465;BME280;40374;49.480;20.016;2023-03-13T06:16:42;62409.59;;;-145.97;100.00
54465;BME280;40374;49.480;20.016;2023-03-13T06:19:21;62409.59;;;-145.97;100.00
54465;BME280;40374;49.480;20.016;2023-03-13T06:21:51;62409.59;;;-145.97;100.00
54465;BME280;40374;49.480;20.016;2023-03-13T06:24:18;62409.59;;;-145.97;100.00
54465;BME280;40374;49.480;20.016;2023-03-13T06:26:49;62409.59;;;-145.97;100.00
54465;BME280;40374;49.480;20.016;2023-03-13T06:29:16;62409.59;;;-145.97;100.00
54465;BME280;40374;49.480;20.016;2023-03-13T06:31:44;62409.59;;;-145.97;100.00
54465;BME280;40374;49.480;20.016;2023-03-13T06:34:12;62409.59;;;-145.97;100.00
54465;BME280;40374;49.480;20.016;2023-03-13T06:36:39;62409.59;;;-145.97;100.00
54465;BME280;40374;49.480;20.016;2023-03-13T06:39:07;62409.59;;;-145.97;100.00
54465;BME280;40374;49.480;20.016;2023-03-13T06:41:35;62409.59;;;-145.97;100.00
54465;BME280;40374;49.480;20.016;2023-03-13T06:44:03;62409.59;;;-145.97;100.00
54465;BME280;40374;49.480;20.016;2023-03-13T06:46:31;62409.59;;;-145.97;100.00
54465;BME280;40374;49.480;20.016;2023-03-13T06:48:58;62409.59;;;-145.97;100.00
54465;BME280;40374;49.480;20.016;2023-03-13T06:51:27;62409.59;;;-145.97;100.00
54465;BME280;40374;49.480;20.016;2023-03-13T06:53:54;62409.59;;;-145.97;100.00
54465;BME280;40374;49.480;20.016;2023-03-13T06:56:21;62409.59;;;-145.97;100.00
54465;BME280;40374;49.480;20.016;2023-03-13T06:58:49;62409.59;;;-145.97;100.00
54465;BME280;40374;49.480;20.016;2023-03-13T07:01:17;62409.59;;;-145.97;100.00
54465;BME280;40374;49.480;20.016;2023-03-13T07:03:46;62409.59;;;-145.97;100.00
54465;BME280;40374;49.480;20.016;2023-03-13T07:06:14;62409.59;;;-145.97;100.00
54465;BME280;40374;49.480;20.016;2023-03-13T07:08:42;62409.59;;;-145.97;100.00
54465;BME280;40374;49.480;20.016;2023-03-13T07:11:12;62409.59;;;-145.97;100.00
54465;BME280;40374;49.480;20.016;2023-03-13T07:13:39;62409.59;;;-145.97;100.00
54465;BME280;40374;49.480;20.016;2023-03-13T07:16:09;62409.59;;;-145.97;100.00
54465;BME280;40374;49.480;20.016;2023-03-13T07:18:38;62409.59;;;-145.97;100.00
54465;BME280;40374;49.480;20.016;2023-03-13T07:21:08;62409.59;;;-145.97;100.00
54465;BME280;40374;49.480;20.016;2023-03-13T07:23:36;62409.59;;;-145.97;100.00
54465;BME280;40374;49.480;20.016;2023-03-13T07:26:07;62409.59;;;-145.97;100.00
54465;BME280;40374;49.480;20.016;2023-03-13T07:28:36;62409.59;;;-145.97;100.00
54465;BME280;40374;49.480;20.016;2023-03-13T07:31:06;62409.59;;;-145.97;100.00
54465;BME280;40374;49.480;20.016;2023-03-13T07:33:34;62409.59;;;-145.97;100.00
54465;BME280;40374;49.480;20.016;2023-03-13T07:36:02;62409.59;;;-145.97;100.00
54465;BME280;40374;49.480;20.016;2023-03-13T07:38:30;62409.59;;;-145.97;100.00
54465;BME280;40374;49.480;20.016;2023-03-13T07:40:57;62409.59;;;-145.97;100.00
54465;BME280;40374;49.480;20.016;2023-03-13T07:43:25;62409.59;;;-145.97;100.00
54465;BME280;40374;49.480;20.016;2023-03-13T07:45:58;62409.59;;;-145.97;100.00
54465;BME280;40374;49.480;20.016;2023-03-13T07:48:31;62409.59;;;-145.97;100.00
54465;BME280;40374;49.480;20.016;2023-03-13T07:50:59;62409.59;;;-145.97;100.00
54465;BME280;40374;49.480;20.016;2023-03-13T07:53:27;62409.59;;;-145.97;100.00
54465;BME280;40374;49.480;20.016;2023-03-13T07:55:59;62409.59;;;-145.97;100.00
54465;BME280;40374;49.480;20.016;2023-03-13T07:58:33;62409.59;;;-145.97;100.00
54465;BME280;40374;49.480;20.016;2023-03-13T08:33:02;94498.09;;;12.26;76.39
54465;BME280;40374;49.480;20.016;2023-03-13T08:35:36;94486.91;;;13.51;62.63
54465;BME280;40374;49.480;20.016;2023-03-13T08:38:04;94472.97;;;14.06;57.98
54465;BME280;40374;49.480;20.016;2023-03-13T08:40:33;94464.81;;;15.07;57.82
54465;BME280;40374;49.480;20.016;2023-03-13T08:43:00;94475.53;;;15.86;55.00
54465;BME280;40374;49.480;20.016;2023-03-13T08:45:28;94481.34;;;16.64;52.36
54465;BME280;40374;49.480;20.016;2023-03-13T08:47:55;94475.13;;;17.27;51.06
54465;BME280;40374;49.480;20.016;2023-03-13T08:50:23;94459.63;;;17.73;48.74
54465;BME280;40374;49.480;20.016;2023-03-13T08:52:50;94454.47;;;18.05;48.82
54465;BME280;40374;49.480;20.016;2023-03-13T08:55:18;94470.41;;;18.68;46.63
54465;BME280;40374;49.480;20.016;2023-03-13T08:57:45;94455.69;;;18.57;46.79
54465;BME280;40374;49.480;20.016;2023-03-13T09:00:13;94452.84;;;18.65;45.77
54465;BME280;40374;49.480;20.016;2023-03-13T09:02:41;94453.88;;;16.87;49.12
54465;BME280;40374;49.480;20.016;2023-03-13T09:05:09;94443.00;;;15.77;52.91
54465;BME280;40374;49.480;20.016;2023-03-13T09:07:36;94445.25;;;15.10;54.88
54465;BME280;40374;49.480;20.016;2023-03-13T09:10:05;94441.28;;;14.55;56.93
54465;BME280;40374;49.480;20.016;2023-03-13T09:12:32;94430.25;;;14.52;58.35
54465;BME280;40374;49.480;20.016;2023-03-13T09:15:00;94429.28;;;14.39;58.82
54465;BME280;40374;49.480;20.016;2023-03-13T09:17:27;94414.81;;;14.35;60.15
54465;BME280;40374;49.480;20.016;2023-03-13T09:19:55;94422.47;;;14.68;59.10
54465;BME280;40374;49.480;20.016;2023-03-13T09:22:26;94415.13;;;14.42;59.32
54465;BME280;40374;49.480;20.016;2023-03-13T09:24:54;94417.13;;;13.93;61.20
54465;BME280;40374;49.480;20.016;2023-03-13T09:27:21;94416.63;;;13.91;63.62
54465;BME280;40374;49.480;20.016;2023-03-13T09:29:49;94418.72;;;14.02;63.14
54465;BME280;40374;49.480;20.016;2023-03-13T09:32:16;94438.22;;;13.42;63.27
54465;BME280;40374;49.480;20.016;2023-03-13T09:34:46;94420.75;;;13.17;66.54
54465;BME280;40374;49.480;20.016;2023-03-13T09:37:14;94410.72;;;13.17;69.45
54465;BME280;40374;49.480;20.016;2023-03-13T09:39:41;94426.69;;;12.83;69.50
54465;BME280;40374;49.480;20.016;2023-03-13T09:42:11;94411.50;;;13.80;75.83
54465;BME280;40374;49.480;20.016;2023-03-13T09:45:03;94413.25;;;14.69;65.75
54465;BME280;40374;49.480;20.016;2023-03-13T09:47:52;94400.31;;;15.00;60.61
54465;BME280;40374;49.480;20.016;2023-03-13T09:50:43;94402.25;;;14.65;59.59
54465;BME280;40374;49.480;20.016;2023-03-13T09:53:17;94407.66;;;14.39;60.67
54465;BME280;40374;49.480;20.016;2023-03-13T09:55:49;94391.84;;;14.06;60.62
54465;BME280;40374;49.480;20.016;2023-03-13T09:58:22;94395.88;;;14.35;62.75
54465;BME280;40374;49.480;20.016;2023-03-13T10:01:02;94385.53;;;14.28;61.21
54465;BME280;40374;49.480;20.016;2023-03-13T10:03:56;94400.72;;;13.98;63.39
54465;BME280;40374;49.480;20.016;2023-03-13T10:06:27;94392.25;;;13.73;63.94
54465;BME280;40374;49.480;20.016;2023-03-13T10:08:57;94392.34;;;13.51;67.46
54465;BME280;40374;49.480;20.016;2023-03-13T10:11:37;94375.66;;;13.57;65.48
54465;BME280;40374;49.480;20.016;2023-03-13T10:14:28;94376.47;;;13.58;67.39
54465;BME280;40374;49.480;20.016;2023-03-13T10:19:34;94374.22;;;14.26;62.90
54465;BME280;40374;49.480;20.016;2023-03-13T10:22:12;94380.13;;;14.19;63.26
54465;BME280;40374;49.480;20.016;2023-03-13T10:27:17;94378.06;;;14.43;61.05
54465;BME280;40374;49.480;20.016;2023-03-13T10:29:44;94371.53;;;14.61;60.83
54465;BME280;40374;49.480;20.016;2023-03-13T10:32:15;94370.13;;;14.72;56.58
54465;BME280;40374;49.480;20.016;2023-03-13T10:34:59;94368.19;;;14.81;58.44
54465;BME280;40374;49.480;20.016;2023-03-13T10:37:30;94372.78;;;14.55;57.86
54465;BME280;40374;49.480;20.016;2023-03-13T10:40:25;94377.75;;;14.79;58.13
54465;BME280;40374;49.480;20.016;2023-03-13T10:43:01;94364.22;;;14.79;57.05
54465;BME280;40374;49.480;20.016;2023-03-13T10:45:36;94389.38;;;14.71;54.63
54465;BME280;40374;49.480;20.016;2023-03-13T10:48:17;94382.50;;;14.82;55.00
54465;BME280;40374;49.480;20.016;2023-03-13T10:50:47;94381.22;;;14.45;55.64
54465;BME280;40374;49.480;20.016;2023-03-13T10:53:25;94377.91;;;14.56;55.72
54465;BME280;40374;49.480;20.016;2023-03-13T10:56:15;94357.34;;;14.29;55.33
54465;BME280;40374;49.480;20.016;2023-03-13T10:58:51;94358.47;;;14.19;55.93
54465;BME280;40374;49.480;20.016;2023-03-13T11:01:40;94343.03;;;14.46;55.33
54465;BME280;40374;49.480;20.016;2023-03-13T11:04:31;94341.28;;;14.59;54.74
54465;BME280;40374;49.480;20.016;2023-03-13T11:07:04;94337.97;;;14.62;54.90
54465;BME280;40374;49.480;20.016;2023-03-13T11:09:32;94328.41;;;14.47;54.04
54465;BME280;40374;49.480;20.016;2023-03-13T11:12:16;94315.44;;;14.96;53.16
54465;BME280;40374;49.480;20.016;2023-03-13T11:14:45;94322.50;;;14.45;51.98
54465;BME280;40374;49.480;20.016;2023-03-13T11:17:37;94320.22;;;14.82;50.95
54465;BME280;40374;49.480;20.016;2023-03-13T11:20:27;94333.13;;;14.94;50.75
54465;BME280;40374;49.480;20.016;2023-03-13T11:23:19;94331.69;;;14.96;51.26
54465;BME280;40374;49.480;20.016;2023-03-13T11:31:29;94326.84;;;15.11;49.91
54465;BME280;40374;49.480;20.016;2023-03-13T11:34:26;94313.50;;;14.97;49.45
54465;BME280;40374;49.480;20.016;2023-03-13T11:37:04;94314.19;;;14.85;49.95
54465;BME280;40374;49.480;20.016;2023-03-13T11:40:40;94296.53;;;14.79;49.37
54465;BME280;40374;49.480;20.016;2023-03-13T11:53:55;94270.69;;;14.90;47.91
54465;BME280;40374;49.480;20.016;2023-03-13T11:56:42;94265.97;;;15.17;47.82
54465;BME280;40374;49.480;20.016;2023-03-13T12:02:05;94254.09;;;15.60;45.99
54465;BME280;40374;49.480;20.016;2023-03-13T12:04:42;94247.63;;;15.52;46.35
54465;BME280;40374;49.480;20.016;2023-03-13T12:07:31;94259.97;;;15.62;46.31
54465;BME280;40374;49.480;20.016;2023-03-13T12:10:19;94251.97;;;15.45;46.12
54465;BME280;40374;49.480;20.016;2023-03-13T12:13:02;94248.72;;;14.92;46.41
54465;BME280;40374;49.480;20.016;2023-03-13T12:15:39;94243.28;;;14.92;46.69
54465;BME280;40374;49.480;20.016;2023-03-13T12:23:41;94259.13;;;14.72;46.49
54465;BME280;40374;49.480;20.016;2023-03-13T12:26:19;94250.00;;;14.86;46.47
54465;BME280;40374;49.480;20.016;2023-03-13T12:31:41;94239.56;;;14.67;46.33
54465;BME280;40374;49.480;20.016;2023-03-13T12:40:02;94238.31;;;14.64;46.01
54465;BME280;40374;49.480;20.016;2023-03-13T12:54:44;94215.50;;;15.12;45.77
54465;BME280;40374;49.480;20.016;2023-03-13T13:00:15;94206.91;;;15.10;45.56
54465;BME280;40374;49.480;20.016;2023-03-13T13:02:44;94200.91;;;14.96;44.97
54465;BME280;40374;49.480;20.016;2023-03-13T13:05:20;94203.34;;;14.80;45.31
54465;BME280;40374;49.480;20.016;2023-03-13T13:07:53;94200.53;;;14.68;44.57
54465;BME280;40374;49.480;20.016;2023-03-13T13:10:24;94196.59;;;14.95;44.63
54465;BME280;40374;49.480;20.016;2023-03-13T13:15:46;94201.16;;;14.73;44.68
54465;BME280;40374;49.480;20.016;2023-03-13T13:18:27;94199.63;;;14.46;45.58
54465;BME280;40374;49.480;20.016;2023-03-13T13:23:44;94186.31;;;14.15;46.21
54465;BME280;40374;49.480;20.016;2023-03-13T13:28:58;94197.50;;;13.96;46.84
54465;BME280;40374;49.480;20.016;2023-03-13T13:36:59;94208.94;;;13.58;47.58
54465;BME280;40374;49.480;20.016;2023-03-13T13:42:37;94207.78;;;14.29;47.33
54465;BME280;40374;49.480;20.016;2023-03-13T13:47:46;94229.16;;;13.87;48.32
54465;BME280;40374;49.480;20.016;2023-03-13T13:50:20;94197.50;;;13.96;48.79
54465;BME280;40374;49.480;20.016;2023-03-13T13:52:49;94245.59;;;13.33;49.65
54465;BME280;40374;49.480;20.016;2023-03-13T13:58:08;94229.03;;;13.08;50.94
54465;BME280;40374;49.480;20.016;2023-03-13T14:03:27;94236.25;;;13.30;51.81
54465;BME280;40374;49.480;20.016;2023-03-13T14:05:59;94247.69;;;12.87;52.36
54465;BME280;40374;49.480;20.016;2023-03-13T14:08:30;94232.91;;;12.93;52.42
54465;BME280;40374;49.480;20.016;2023-03-13T14:11:07;94245.31;;;12.94;52.75
54465;BME280;40374;49.480;20.016;2023-03-13T14:13:43;94252.31;;;12.33;53.64
54465;BME280;40374;49.480;20.016;2023-03-13T14:16:20;94247.94;;;13.17;53.26
54465;BME280;40374;49.480;20.016;2023-03-13T14:18:51;94229.53;;;12.39;54.13
54465;BME280;40374;49.480;20.016;2023-03-13T14:21:22;94234.38;;;12.59;55.25
54465;BME280;40374;49.480;20.016;2023-03-13T14:23:51;94228.97;;;12.59;56.19
54465;BME280;40374;49.480;20.016;2023-03-13T14:26:25;94224.38;;;12.60;57.08
54465;BME280;40374;49.480;20.016;2023-03-13T14:28:56;94222.44;;;12.52;57.86
54465;BME280;40374;49.480;20.016;2023-03-13T14:31:28;94231.44;;;11.93;61.58
54465;BME280;40374;49.480;20.016;2023-03-13T14:34:01;94224.19;;;12.25;66.99
54465;BME280;40374;49.480;20.016;2023-03-13T14:36:29;94231.50;;;11.66;72.90
54465;BME280;40374;49.480;20.016;2023-03-13T14:38:58;94238.47;;;11.67;75.53
54465;BME280;40374;49.480;20.016;2023-03-13T14:41:29;94225.94;;;11.62;81.08
54465;BME280;40374;49.480;20.016;2023-03-13T14:44:05;94236.09;;;11.65;83.20
54465;BME280;40374;49.480;20.016;2023-03-13T14:46:33;94230.53;;;11.84;82.22
54465;BME280;40374;49.480;20.016;2023-03-13T14:49:17;94230.59;;;11.70;82.71
54465;BME280;40374;49.480;20.016;2023-03-13T14:57:04;94207.56;;;11.64;85.85
54465;BME280;40374;49.480;20.016;2023-03-13T14:59:32;94203.56;;;11.25;87.56
54465;BME280;40374;49.480;20.016;2023-03-13T15:02:02;94204.63;;;11.74;87.38
54465;BME280;40374;49.480;20.016;2023-03-13T15:04:55;94212.75;;;11.97;84.97
54465;BME280;40374;49.480;20.016;2023-03-13T15:07:37;94203.78;;;11.88;84.05
54465;BME280;40374;49.480;20.016;2023-03-13T15:10:39;94202.78;;;11.84;85.74
54465;BME280;40374;49.480;20.016;2023-03-13T15:13:25;94205.91;;;11.91;86.17